Time;durP1;ratioP1;P1;durP2;ratioP2;P2;SDS_P1;SDS_P2;PMS_P1;PMS_P2;Temp;Humidity;BMP_temperature;BMP_pressure;BME280_temperature;BME280_humidity;BME280_pressure;Samples;Min_cycle;Max_cycle;Signal;HPM_P1;HPM_P2
2023/12/11 00:00:47;;;;;;;26.75;5.60;;;7.90;99.90;;;;;;5053839;28;20394;-17
2023/12/11 00:03:12;;;;;;;27.33;4.00;;;7.90;99.90;;;;;;5053734;28;20103;-18
2023/12/11 00:05:39;;;;;;;33.97;4.38;;;8.00;99.90;;;;;;5055476;28;20045;-18
2023/12/11 00:08:06;;;;;;;40.88;6.68;;;7.90;99.90;;;;;;5053974;28;20049;-17
2023/12/11 00:10:31;;;;;;;32.80;4.95;;;7.80;99.90;;;;;;5053873;28;20053;-18
2023/12/11 00:12:57;;;;;;;27.75;5.35;;;7.80;99.90;;;;;;5054785;28;20051;-18
2023/12/11 00:15:23;;;;;;;31.38;5.18;;;7.90;99.90;;;;;;5054877;28;20143;-18
2023/12/11 00:17:49;;;;;;;30.85;5.15;;;8.00;99.90;;;;;;5055506;28;20152;-18
2023/12/11 00:20:15;;;;;;;43.72;6.35;;;8.00;99.90;;;;;;5037873;28;20546;-18
2023/12/11 00:22:41;;;;;;;36.53;6.22;;;8.00;99.90;;;;;;5053561;28;20471;-18
2023/12/11 00:25:07;;;;;;;39.25;6.85;;;8.00;99.90;;;;;;5054536;28;20048;-18
2023/12/11 00:27:33;;;;;;;37.63;6.25;;;8.00;99.90;;;;;;5055322;28;20060;-18
2023/12/11 00:29:59;;;;;;;43.67;7.72;;;8.10;99.90;;;;;;5054494;28;20048;-18
2023/12/11 00:32:25;;;;;;;39.60;6.47;;;8.00;99.90;;;;;;5054433;28;20123;-18
2023/12/11 00:34:51;;;;;;;31.33;5.30;;;8.00;99.90;;;;;;5054276;28;20132;-18
2023/12/11 00:37:17;;;;;;;31.00;4.93;;;8.00;99.90;;;;;;5053199;28;20067;-18
2023/12/11 00:39:43;;;;;;;33.42;5.57;;;8.10;99.90;;;;;;5037153;28;20041;-18
2023/12/11 00:42:09;;;;;;;46.20;6.72;;;8.10;99.90;;;;;;5053044;28;20052;-18
2023/12/11 00:44:38;;;;;;;41.55;6.75;;;8.10;99.90;;;;;;5054165;28;20090;-18
2023/12/11 00:47:04;;;;;;;41.40;7.60;;;8.20;99.90;;;;;;5054676;28;20375;-18
2023/12/11 00:49:31;;;;;;;45.58;6.78;;;8.20;99.90;;;;;;5054388;28;20378;-18
2023/12/11 00:51:57;;;;;;;34.30;5.90;;;8.20;99.90;;;;;;5052976;28;20048;-18
2023/12/11 00:54:23;;;;;;;39.75;5.43;;;8.20;99.90;;;;;;5052782;28;20377;-18
2023/12/11 00:56:49;;;;;;;60.83;9.40;;;8.20;99.90;;;;;;5053146;28;20045;-18
2023/12/11 00:59:15;;;;;;;45.53;7.53;;;8.20;99.90;;;;;;5052719;28;20049;-18
2023/12/11 01:01:41;;;;;;;42.55;7.65;;;8.20;99.90;;;;;;5052726;28;20055;-18
2023/12/11 01:04:07;;;;;;;46.78;7.20;;;8.30;99.90;;;;;;5054138;28;20045;-18
2023/12/11 01:06:33;;;;;;;37.88;7.63;;;8.40;99.90;;;;;;5053868;28;20049;-18
2023/12/11 01:08:59;;;;;;;32.13;5.53;;;8.40;99.90;;;;;;5036307;28;20041;-18
2023/12/11 01:11:25;;;;;;;46.45;8.52;;;8.50;99.90;;;;;;5053791;28;20095;-18
2023/12/11 01:13:51;;;;;;;57.00;7.45;;;8.50;99.90;;;;;;5053520;28;20053;-18
2023/12/11 01:16:18;;;;;;;45.63;6.97;;;8.40;99.90;;;;;;5053823;28;20056;-18
2023/12/11 01:18:44;;;;;;;40.35;6.90;;;8.50;99.90;;;;;;5053666;28;20045;-18
2023/12/11 01:21:10;;;;;;;51.47;8.15;;;8.60;99.90;;;;;;5054255;28;20102;-18
2023/12/11 01:23:36;;;;;;;47.47;7.22;;;8.50;99.90;;;;;;5052321;28;20529;-18
2023/12/11 01:26:02;;;;;;;51.47;7.00;;;8.60;99.90;;;;;;5053646;28;20041;-17
2023/12/11 01:28:28;;;;;;;33.25;5.47;;;8.40;99.90;;;;;;5052676;28;20539;-17
2023/12/11 01:30:54;;;;;;;38.17;5.53;;;8.70;99.90;;;;;;5053562;28;20398;-17
2023/12/11 01:33:19;;;;;;;51.75;7.35;;;8.60;99.90;;;;;;5035708;28;20479;-17
2023/12/11 01:35:45;;;;;;;37.38;5.55;;;8.70;99.90;;;;;;5053432;28;20131;-18
2023/12/11 01:38:11;;;;;;;31.73;6.38;;;8.50;99.90;;;;;;5053151;28;20081;-17
2023/12/11 01:40:37;;;;;;;37.55;6.55;;;8.60;99.90;;;;;;5035754;28;20045;-18
2023/12/11 01:43:16;;;;;;;42.55;6.47;;;8.60;99.90;;;;;;5053420;28;20045;-18
2023/12/11 01:45:43;;;;;;;43.55;8.07;;;8.60;99.90;;;;;;5035578;28;20063;-17
2023/12/11 01:48:10;;;;;;;37.25;5.35;;;8.50;99.90;;;;;;5053068;28;20426;-17
2023/12/11 01:50:37;;;;;;;46.30;6.05;;;8.50;99.90;;;;;;5035942;28;20049;-18
2023/12/11 01:53:04;;;;;;;43.85;6.50;;;8.50;99.90;;;;;;5053657;28;20057;-17
2023/12/11 01:55:32;;;;;;;41.03;6.80;;;8.50;99.90;;;;;;5053251;28;20041;-18
2023/12/11 01:58:00;;;;;;;20.98;4.25;;;8.40;99.90;;;;;;5035450;28;20057;-18
2023/12/11 02:00:26;;;;;;;38.80;4.85;;;8.50;99.90;;;;;;5053278;28;20132;-18
2023/12/11 02:02:52;;;;;;;35.00;5.80;;;8.50;99.90;;;;;;5052248;28;20048;-18
2023/12/11 02:05:18;;;;;;;44.35;8.52;;;8.20;99.90;;;;;;5053210;28;20049;-18
2023/12/11 02:07:44;;;;;;;26.92;3.80;;;8.20;99.90;;;;;;5054368;28;20411;-17
2023/12/11 02:10:10;;;;;;;31.17;5.93;;;8.20;99.90;;;;;;5057126;28;20483;-17
2023/12/11 02:12:35;;;;;;;26.77;4.05;;;8.30;99.90;;;;;;5040058;28;20127;-18
2023/12/11 02:15:01;;;;;;;23.95;4.68;;;8.10;99.90;;;;;;5056658;28;20060;-17
2023/12/11 02:17:27;;;;;;;32.42;4.80;;;7.90;99.90;;;;;;5056276;28;20049;-17
2023/12/11 02:19:53;;;;;;;38.30;6.65;;;7.90;99.90;;;;;;5057222;28;20127;-17
2023/12/11 02:22:19;;;;;;;46.03;6.35;;;8.50;99.90;;;;;;5057108;28;20463;-17
2023/12/11 02:24:52;;;;;;;43.17;7.53;;;8.20;99.90;;;;;;5055695;28;20124;-17
2023/12/11 02:27:18;;;;;;;46.17;5.35;;;8.40;99.90;;;;;;5055866;28;20115;-17
2023/12/11 02:29:44;;;;;;;41.08;6.47;;;8.30;99.90;;;;;;5039028;28;20085;-17
2023/12/11 02:32:10;;;;;;;49.75;8.98;;;7.90;99.90;;;;;;5057521;28;20041;-17
2023/12/11 02:34:35;;;;;;;52.75;7.57;;;7.90;99.90;;;;;;5039098;28;20440;-17
2023/12/11 02:37:01;;;;;;;31.92;6.03;;;8.10;99.90;;;;;;5056610;28;20052;-17
2023/12/11 02:39:27;;;;;;;41.60;5.93;;;8.50;99.90;;;;;;5057112;28;20049;-17
2023/12/11 02:41:53;;;;;;;34.05;5.47;;;8.10;99.90;;;;;;5055362;28;20052;-17
2023/12/11 02:44:19;;;;;;;47.80;7.28;;;8.60;99.90;;;;;;5055280;28;20132;-18
2023/12/11 02:46:44;;;;;;;45.53;6.35;;;8.40;99.90;;;;;;5056485;28;20115;-17
2023/12/11 02:49:10;;;;;;;54.63;7.88;;;8.50;99.90;;;;;;5055953;28;20124;-18
2023/12/11 02:51:36;;;;;;;40.78;5.68;;;8.30;99.90;;;;;;5055159;28;20044;-18
2023/12/11 02:54:02;;;;;;;49.80;6.40;;;8.60;99.90;;;;;;5039465;28;20156;-18
2023/12/11 02:56:27;;;;;;;48.67;7.57;;;8.50;99.90;;;;;;5055622;28;20071;-18
2023/12/11 02:58:53;;;;;;;44.67;7.40;;;8.40;99.90;;;;;;5056176;28;20045;-18
2023/12/11 03:01:19;;;;;;;53.55;7.00;;;8.20;99.90;;;;;;5056172;28;20051;-18
2023/12/11 03:03:45;;;;;;;31.10;5.30;;;8.50;99.90;;;;;;5056150;28;20071;-16
2023/12/11 03:06:18;;;;;;;48.10;6.80;;;8.30;99.90;;;;;;5056028;28;20467;-17
2023/12/11 03:08:44;;;;;;;44.65;5.63;;;8.40;99.90;;;;;;5056923;28;20132;-17
2023/12/11 03:11:10;;;;;;;43.67;7.25;;;8.10;99.90;;;;;;5038408;28;20148;-18
2023/12/11 03:13:36;;;;;;;50.95;7.43;;;8.50;99.90;;;;;;5056515;28;20384;-18
2023/12/11 03:16:02;;;;;;;46.58;7.03;;;8.00;99.90;;;;;;5055981;28;20057;-18
2023/12/11 03:18:28;;;;;;;44.40;7.18;;;8.60;99.90;;;;;;5055430;28;20095;-18
2023/12/11 03:20:53;;;;;;;37.55;5.50;;;8.60;99.90;;;;;;5055092;28;20049;-17
2023/12/11 03:23:19;;;;;;;46.28;6.65;;;8.30;99.90;;;;;;5055656;28;20103;-18
2023/12/11 03:25:45;;;;;;;26.42;4.90;;;8.00;99.90;;;;;;5055072;28;20082;-17
2023/12/11 03:28:11;;;;;;;47.13;7.38;;;8.50;99.90;;;;;;5055667;28;20106;-17
2023/12/11 03:30:37;;;;;;;30.40;6.20;;;8.60;99.90;;;;;;5055611;28;20044;-17
2023/12/11 03:33:03;;;;;;;48.08;7.68;;;8.00;99.90;;;;;;5054430;28;20045;-17
2023/12/11 03:35:28;;;;;;;40.35;5.70;;;8.10;99.90;;;;;;5055417;28;20044;-18
2023/12/11 03:37:54;;;;;;;51.20;6.47;;;8.60;99.90;;;;;;5055457;28;20495;-18
2023/12/11 03:40:20;;;;;;;45.10;6.30;;;8.10;99.90;;;;;;5055466;28;20056;-18
2023/12/11 03:42:46;;;;;;;38.72;6.45;;;8.20;99.90;;;;;;5054205;28;20133;-18
2023/12/11 03:45:11;;;;;;;45.67;8.07;;;8.40;99.90;;;;;;5055025;28;20045;-18
2023/12/11 03:47:37;;;;;;;53.63;6.00;;;8.70;99.90;;;;;;5055566;28;20044;-18
2023/12/11 03:50:03;;;;;;;34.08;6.07;;;8.70;99.90;;;;;;5055860;28;20083;-18
2023/12/11 03:52:29;;;;;;;38.10;5.75;;;8.50;99.90;;;;;;5055198;28;20098;-18
2023/12/11 03:54:55;;;;;;;38.13;6.07;;;8.60;99.90;;;;;;5055098;28;20052;-18
2023/12/11 03:57:21;;;;;;;47.50;7.25;;;8.70;99.90;;;;;;5055614;28;20049;-18
2023/12/11 03:59:46;;;;;;;50.47;7.85;;;8.40;99.90;;;;;;5053857;28;20110;-18
2023/12/11 04:02:12;;;;;;;40.72;7.40;;;8.60;99.90;;;;;;5055571;28;20179;-18
2023/12/11 04:04:38;;;;;;;41.38;5.80;;;8.30;99.90;;;;;;5054958;28;20045;-18
2023/12/11 04:07:04;;;;;;;43.10;6.97;;;8.60;99.90;;;;;;5053646;28;20044;-18
2023/12/11 04:09:30;;;;;;;47.72;7.95;;;8.20;99.90;;;;;;5054849;28;20037;-18
2023/12/11 04:11:55;;;;;;;64.43;9.52;;;8.20;99.90;;;;;;5055385;28;20142;-18
2023/12/11 04:14:21;;;;;;;51.30;7.78;;;8.60;99.90;;;;;;5037215;28;20120;-18
2023/12/11 04:16:47;;;;;;;36.53;5.47;;;8.40;99.90;;;;;;5054884;28;20060;-18
2023/12/11 04:19:13;;;;;;;46.47;7.68;;;8.20;99.90;;;;;;5053734;28;20080;-18
2023/12/11 04:21:39;;;;;;;42.90;7.35;;;8.80;99.90;;;;;;5054631;28;20055;-18
2023/12/11 04:24:05;;;;;;;41.88;6.85;;;8.70;99.90;;;;;;5054509;28;20455;-18
2023/12/11 04:26:31;;;;;;;36.05;6.53;;;8.70;99.90;;;;;;5036795;28;20041;-18
2023/12/11 04:28:57;;;;;;;58.45;7.68;;;8.20;99.90;;;;;;5054531;28;20049;-18
2023/12/11 04:31:23;;;;;;;57.67;7.18;;;8.20;99.90;;;;;;5052006;28;20139;-18
2023/12/11 04:33:52;;;;;;;51.88;8.43;;;8.40;99.90;;;;;;5054412;28;20407;-18
2023/12/11 04:36:18;;;;;;;38.63;8.13;;;8.20;99.90;;;;;;5054242;28;20613;-18
2023/12/11 04:38:44;;;;;;;41.53;6.82;;;8.20;99.90;;;;;;5053321;28;20164;-18
2023/12/11 04:41:10;;;;;;;41.65;7.75;;;8.60;99.90;;;;;;5053170;28;20049;-18
2023/12/11 04:43:36;;;;;;;48.50;7.00;;;8.60;99.90;;;;;;5053614;28;20432;-18
2023/12/11 04:46:02;;;;;;;46.50;6.38;;;8.30;99.90;;;;;;5054727;28;20127;-18
2023/12/11 04:48:28;;;;;;;46.75;5.65;;;8.40;99.90;;;;;;5054109;28;20048;-18
2023/12/11 04:50:54;;;;;;;44.13;8.80;;;8.60;99.90;;;;;;5054114;28;20052;-18
2023/12/11 04:53:19;;;;;;;40.90;6.90;;;8.60;99.90;;;;;;5054631;28;20080;-18
2023/12/11 04:55:45;;;;;;;34.45;6.60;;;8.70;99.90;;;;;;5052543;28;20045;-18
2023/12/11 04:58:11;;;;;;;37.40;6.32;;;8.40;99.90;;;;;;5053969;28;20045;-18
2023/12/11 05:00:37;;;;;;;56.58;7.93;;;8.60;99.90;;;;;;5054001;28;20045;-18
2023/12/11 05:03:03;;;;;;;55.05;8.52;;;8.60;99.90;;;;;;5054447;28;20087;-18
2023/12/11 05:05:28;;;;;;;72.75;8.73;;;8.30;99.90;;;;;;5052897;28;20060;-18
2023/12/11 05:07:54;;;;;;;30.55;4.43;;;8.60;99.90;;;;;;5053902;28;20139;-18
2023/12/11 05:10:20;;;;;;;43.97;6.20;;;8.40;99.90;;;;;;5054362;28;20052;-18
2023/12/11 05:12:46;;;;;;;49.35;5.72;;;8.60;99.90;;;;;;5036256;28;20041;-18
2023/12/11 05:15:11;;;;;;;47.28;8.88;;;8.60;99.90;;;;;;5053380;28;20060;-18
2023/12/11 05:17:37;;;;;;;39.97;6.25;;;8.50;99.90;;;;;;5053723;28;20111;-18
2023/12/11 05:20:03;;;;;;;40.03;5.82;;;8.20;99.90;;;;;;5054315;28;20118;-18
2023/12/11 05:22:29;;;;;;;44.45;6.40;;;8.40;99.90;;;;;;5053682;28;20040;-18
2023/12/11 05:24:55;;;;;;;44.22;8.52;;;8.40;99.90;;;;;;5035726;28;20479;-18
2023/12/11 05:27:21;;;;;;;40.67;6.63;;;8.30;99.90;;;;;;5053582;28;20087;-18
2023/12/11 05:29:47;;;;;;;34.15;5.43;;;8.50;99.90;;;;;;5053571;28;20103;-18
2023/12/11 05:32:14;;;;;;;47.45;5.88;;;8.50;99.90;;;;;;5052321;28;20052;-18
2023/12/11 05:34:40;;;;;;;37.50;6.10;;;8.40;99.90;;;;;;5053432;28;20079;-17
2023/12/11 05:37:06;;;;;;;37.33;7.22;;;8.40;99.90;;;;;;5053769;28;20045;-18
2023/12/11 05:39:32;;;;;;;41.17;6.03;;;8.50;99.90;;;;;;5036470;28;20479;-18
2023/12/11 05:41:58;;;;;;;47.42;8.10;;;8.30;99.90;;;;;;5052503;28;20479;-18
2023/12/11 05:44:23;;;;;;;32.95;6.07;;;8.50;99.90;;;;;;5056292;28;20045;-18
2023/12/11 05:46:49;;;;;;;38.58;6.07;;;8.40;99.90;;;;;;5039804;28;20045;-18
2023/12/11 05:49:15;;;;;;;36.95;4.95;;;8.30;99.90;;;;;;5057530;28;20098;-18
2023/12/11 05:51:41;;;;;;;39.08;7.28;;;8.50;99.90;;;;;;5057451;28;20084;-18
2023/12/11 05:54:06;;;;;;;38.17;5.32;;;8.40;99.90;;;;;;5056454;28;20102;-18
2023/12/11 05:56:33;;;;;;;47.33;5.32;;;8.00;99.90;;;;;;5057303;28;20056;-18
2023/12/11 05:58:59;;;;;;;45.20;6.47;;;8.30;99.90;;;;;;5057345;28;20063;-18
2023/12/11 06:01:26;;;;;;;44.10;6.15;;;8.20;99.90;;;;;;5057330;28;20083;-17
2023/12/11 06:03:52;;;;;;;41.22;6.75;;;7.90;99.90;;;;;;5058095;28;20126;-18
2023/12/11 06:06:18;;;;;;;33.17;4.82;;;8.20;99.90;;;;;;5057258;28;20483;-18
2023/12/11 06:08:44;;;;;;;33.58;5.13;;;8.20;99.90;;;;;;5057157;28;20052;-18
2023/12/11 06:11:10;;;;;;;33.78;5.65;;;7.90;99.90;;;;;;5057113;28;20048;-18
2023/12/11 06:13:36;;;;;;;43.47;5.85;;;8.00;99.90;;;;;;5057130;28;20052;-18
2023/12/11 06:16:02;;;;;;;40.55;5.95;;;7.70;99.90;;;;;;5055574;28;20462;-18
2023/12/11 06:18:28;;;;;;;31.75;6.13;;;7.70;99.90;;;;;;5056996;28;20102;-18
2023/12/11 06:20:54;;;;;;;43.30;6.18;;;7.80;99.90;;;;;;5055747;28;20041;-18
2023/12/11 06:23:22;;;;;;;30.00;5.80;;;8.10;99.90;;;;;;5057302;28;20080;-18
2023/12/11 06:25:48;;;;;;;31.38;6.35;;;8.20;99.90;;;;;;5056866;28;20045;-18
2023/12/11 06:28:13;;;;;;;31.25;4.93;;;8.10;99.90;;;;;;5056811;28;20395;-18
2023/12/11 06:30:39;;;;;;;28.75;5.20;;;8.10;99.90;;;;;;5039224;28;20098;-18
2023/12/11 06:33:05;;;;;;;33.40;4.38;;;8.00;99.90;;;;;;5038924;28;20487;-18
2023/12/11 06:35:31;;;;;;;40.22;5.22;;;8.20;99.90;;;;;;5039797;28;20053;-18
2023/12/11 06:37:57;;;;;;;44.05;5.05;;;7.70;99.90;;;;;;5056566;28;20060;-18
2023/12/11 06:40:23;;;;;;;26.70;5.35;;;7.70;99.90;;;;;;5056503;28;20096;-18
2023/12/11 06:42:48;;;;;;;39.78;7.03;;;7.90;99.90;;;;;;5057004;28;20060;-18
2023/12/11 06:45:14;;;;;;;42.00;6.63;;;7.70;99.90;;;;;;5056758;28;20045;-18
2023/12/11 06:47:41;;;;;;;42.95;6.95;;;7.60;99.90;;;;;;5038838;28;20537;-18
2023/12/11 06:50:12;;;;;;;32.95;5.93;;;7.80;99.90;;;;;;5056389;28;20049;-18
2023/12/11 06:52:37;;;;;;;23.98;4.30;;;7.70;99.90;;;;;;5055804;28;20049;-18
2023/12/11 06:55:04;;;;;;;43.95;5.85;;;8.30;99.90;;;;;;5053899;28;20083;-18
2023/12/11 06:57:30;;;;;;;46.22;6.22;;;8.00;99.90;;;;;;5055957;28;20056;-18
2023/12/11 06:59:56;;;;;;;35.00;5.07;;;8.40;99.90;;;;;;5056481;28;20122;-18
2023/12/11 07:02:22;;;;;;;42.88;7.30;;;8.40;99.90;;;;;;5055871;28;20495;-18
2023/12/11 07:04:47;;;;;;;37.42;5.72;;;8.30;99.90;;;;;;5056137;28;20083;-18
2023/12/11 07:07:14;;;;;;;34.97;5.15;;;7.80;99.90;;;;;;5054900;28;20454;-18
2023/12/11 07:09:40;;;;;;;35.00;6.95;;;7.80;99.90;;;;;;5056020;28;20049;-18
2023/12/11 07:12:06;;;;;;;42.55;6.07;;;7.80;99.90;;;;;;5055938;28;20102;-18
2023/12/11 07:14:32;;;;;;;30.98;4.82;;;7.70;99.90;;;;;;5055721;28;20057;-18
2023/12/11 07:16:57;;;;;;;41.60;5.28;;;7.80;99.90;;;;;;5055372;28;20135;-18
2023/12/11 07:19:23;;;;;;;36.58;5.40;;;8.40;99.90;;;;;;5055570;28;20049;-18
2023/12/11 07:21:49;;;;;;;36.00;6.43;;;7.90;99.90;;;;;;5055836;28;20052;-18
2023/12/11 07:24:15;;;;;;;42.45;5.40;;;8.40;99.90;;;;;;5054681;28;20403;-18
2023/12/11 07:26:40;;;;;;;31.17;5.60;;;8.40;99.90;;;;;;5055937;28;20056;-18
2023/12/11 07:29:07;;;;;;;34.78;4.65;;;8.40;99.90;;;;;;5055645;28;20045;-18
2023/12/11 07:31:33;;;;;;;27.80;3.67;;;8.40;99.90;;;;;;5054452;28;20092;-18
2023/12/11 07:33:59;;;;;;;28.05;4.03;;;7.70;99.90;;;;;;5055535;28;20084;-18
2023/12/11 07:36:25;;;;;;;30.33;4.68;;;7.50;99.90;;;;;;5056002;28;20163;-18
2023/12/11 07:38:51;;;;;;;32.70;5.25;;;8.10;99.90;;;;;;5054290;28;20045;-18
2023/12/11 07:41:20;;;;;;;24.45;3.47;;;8.40;99.90;;;;;;5055409;28;20099;-18
2023/12/11 07:43:47;;;;;;;24.60;3.45;;;8.40;99.90;;;;;;5055384;28;20479;-18
2023/12/11 07:46:22;;;;;;;22.35;3.30;;;7.60;99.90;;;;;;5055319;28;20076;-18
2023/12/11 07:48:48;;;;;;;33.03;5.93;;;8.30;99.90;;;;;;5056149;28;20049;-18
2023/12/11 07:51:26;;;;;;;27.52;4.53;;;8.20;99.90;;;;;;5055218;28;20369;-18
2023/12/11 07:53:58;;;;;;;26.15;4.32;;;7.80;99.90;;;;;;5055758;28;20049;-18
2023/12/11 07:56:24;;;;;;;26.63;4.43;;;8.20;99.90;;;;;;5055280;28;20468;-18
2023/12/11 07:58:51;;;;;;;33.25;4.82;;;8.50;99.90;;;;;;5037414;28;20291;-18
2023/12/11 08:01:17;;;;;;;28.00;4.35;;;7.80;99.90;;;;;;5054046;28;20365;-17
2023/12/11 08:03:44;;;;;;;31.58;5.78;;;7.80;99.90;;;;;;5054972;28;20044;-18
2023/12/11 08:06:10;;;;;;;31.45;3.92;;;8.30;99.90;;;;;;5054709;28;20041;-18
2023/12/11 08:08:45;;;;;;;24.02;4.22;;;8.20;99.90;;;;;;5054290;28;20052;-18
2023/12/11 08:11:24;;;;;;;18.77;3.95;;;8.00;99.90;;;;;;5055172;28;20048;-18
2023/12/11 08:13:50;;;;;;;21.88;3.78;;;7.90;99.90;;;;;;5053321;28;20044;-18
2023/12/11 08:16:17;;;;;;;31.63;3.88;;;8.60;99.90;;;;;;5054273;28;20461;-18
2023/12/11 08:18:47;;;;;;;25.65;4.03;;;8.40;99.90;;;;;;5054747;28;20071;-18
2023/12/11 08:21:14;;;;;;;28.42;4.30;;;8.50;99.90;;;;;;5054699;28;20056;-18
2023/12/11 08:23:40;;;;;;;30.15;3.72;;;8.00;99.90;;;;;;5054760;28;20480;-18
2023/12/11 08:26:06;;;;;;;33.83;3.63;;;7.70;99.90;;;;;;5054539;28;20128;-18
2023/12/11 08:28:33;;;;;;;18.67;3.20;;;8.10;99.90;;;;;;5054437;28;20049;-17
2023/12/11 08:30:59;;;;;;;24.30;4.18;;;8.60;99.90;;;;;;5054455;28;20048;-18
2023/12/11 08:33:24;;;;;;;25.70;4.13;;;8.40;99.90;;;;;;5054297;28;20048;-19
2023/12/11 08:35:50;;;;;;;19.98;4.15;;;7.70;99.90;;;;;;5054708;28;20069;-18
2023/12/11 08:38:17;;;;;;;25.02;4.38;;;8.60;99.90;;;;;;5052928;28;20068;-18
2023/12/11 08:40:43;;;;;;;18.90;4.28;;;8.60;99.90;;;;;;5054225;28;20128;-18
2023/12/11 08:43:12;;;;;;;25.98;4.22;;;8.60;99.90;;;;;;5054346;28;20128;-18
2023/12/11 08:45:38;;;;;;;25.25;4.93;;;8.20;99.90;;;;;;5052871;28;20127;-18
2023/12/11 08:48:04;;;;;;;15.75;3.47;;;8.60;99.90;;;;;;5053652;28;20051;-18
2023/12/11 08:50:30;;;;;;;26.30;3.92;;;8.40;99.90;;;;;;5053796;28;20490;-18
2023/12/11 08:52:57;;;;;;;23.33;5.45;;;8.30;99.90;;;;;;5052901;28;20450;-18
2023/12/11 08:55:23;;;;;;;21.40;4.85;;;8.70;99.90;;;;;;5052403;28;20438;-18
2023/12/11 08:57:48;;;;;;;16.45;3.30;;;8.70;99.90;;;;;;5054119;28;20045;-18
2023/12/11 09:00:14;;;;;;;26.58;5.30;;;8.70;99.90;;;;;;5053828;28;20110;-18
2023/12/11 09:02:40;;;;;;;25.70;4.50;;;8.60;99.90;;;;;;5053528;28;20510;-18
2023/12/11 09:05:08;;;;;;;19.67;4.00;;;8.30;99.90;;;;;;5053765;28;20048;-18
2023/12/11 09:07:34;;;;;;;14.85;3.15;;;7.80;99.90;;;;;;5053684;28;20041;-18
2023/12/11 09:10:02;;;;;;;20.88;4.55;;;7.80;99.90;;;;;;5053976;28;20071;-18
2023/12/11 09:12:27;;;;;;;18.85;3.88;;;8.00;99.90;;;;;;5053719;28;20053;-18
2023/12/11 09:14:53;;;;;;;21.23;5.13;;;7.80;99.90;;;;;;5053697;28;20601;-18
2023/12/11 09:17:19;;;;;;;16.80;4.15;;;8.80;99.90;;;;;;5051668;28;20052;-18
2023/12/11 09:19:45;;;;;;;19.95;4.95;;;8.80;99.90;;;;;;5052403;28;20075;-18
2023/12/11 09:22:13;;;;;;;31.80;5.20;;;8.10;99.90;;;;;;5053532;28;20475;-18
2023/12/11 09:24:39;;;;;;;25.58;5.57;;;7.90;99.90;;;;;;5053630;28;20123;-18
2023/12/11 09:27:05;;;;;;;34.03;6.00;;;8.80;99.90;;;;;;5036009;28;20439;-18
2023/12/11 09:29:30;;;;;;;16.33;3.10;;;8.20;99.90;;;;;;5052342;28;20128;-18
2023/12/11 09:31:56;;;;;;;23.88;4.63;;;8.30;99.90;;;;;;5035747;28;20128;-18
2023/12/11 09:34:22;;;;;;;28.30;4.90;;;8.30;99.90;;;;;;5052437;28;20040;-18
2023/12/11 09:36:48;;;;;;;19.55;3.85;;;8.40;99.90;;;;;;5035684;28;20394;-18
2023/12/11 09:39:13;;;;;;;34.95;5.70;;;8.00;99.90;;;;;;5052687;28;20045;-18
2023/12/11 09:41:40;;;;;;;22.63;4.95;;;9.00;99.90;;;;;;5035621;28;20049;-18
2023/12/11 09:44:08;;;;;;;36.33;4.03;;;8.10;99.90;;;;;;5052139;28;20056;-18
2023/12/11 09:46:41;;;;;;;33.22;5.05;;;9.00;99.90;;;;;;5035769;28;20045;-18
2023/12/11 09:49:07;;;;;;;20.58;3.78;;;8.40;99.90;;;;;;5035750;28;20057;-17
2023/12/11 09:51:33;;;;;;;29.05;4.55;;;8.40;99.90;;;;;;5052867;28;20045;-18
2023/12/11 09:54:01;;;;;;;21.52;3.75;;;8.50;99.90;;;;;;5053248;28;20602;-17
2023/12/11 09:56:27;;;;;;;24.88;4.18;;;9.20;99.90;;;;;;5053133;28;20044;-17
2023/12/11 09:58:54;;;;;;;29.60;4.80;;;8.20;99.90;;;;;;5052026;28;20045;-17
2023/12/11 10:01:26;;;;;;;24.52;4.05;;;8.40;99.90;;;;;;5053232;28;20076;-18
2023/12/11 10:03:52;;;;;;;18.98;3.53;;;8.10;99.90;;;;;;5052002;28;20486;-18
2023/12/11 10:06:18;;;;;;;25.45;5.53;;;8.70;99.90;;;;;;5052142;28;20151;-19
2023/12/11 10:08:52;;;;;;;27.58;3.65;;;9.00;99.90;;;;;;5052132;28;20483;-19
2023/12/11 10:11:19;;;;;;;18.88;2.53;;;8.10;99.90;;;;;;5052568;28;20045;-18
2023/12/11 10:13:45;;;;;;;28.33;4.75;;;9.00;99.90;;;;;;5052052;28;20048;-19
2023/12/11 10:16:35;;;;;;;24.33;3.67;;;8.10;99.90;;;;;;5053080;28;20429;-18
2023/12/11 10:19:02;;;;;;;29.85;4.10;;;8.40;99.90;;;;;;5053826;28;20049;-18
2023/12/11 10:21:41;;;;;;;15.65;2.38;;;7.90;99.90;;;;;;5053218;28;20491;-18
2023/12/11 10:24:13;;;;;;;19.80;3.30;;;9.10;99.90;;;;;;5035072;28;20518;-18
2023/12/11 10:26:56;;;;;;;29.23;4.45;;;8.10;99.90;;;;;;5051726;28;20053;-18
2023/12/11 10:29:27;;;;;;;16.45;2.30;;;9.20;99.90;;;;;;5054038;28;20391;-18
2023/12/11 10:32:01;;;;;;;27.55;4.30;;;8.90;99.90;;;;;;5056700;28;20120;-18
2023/12/11 10:34:43;;;;;;;17.25;2.53;;;8.70;99.90;;;;;;5056592;28;20052;-18
2023/12/11 10:37:16;;;;;;;20.75;2.75;;;8.20;99.90;;;;;;5057161;28;20049;-18
2023/12/11 10:39:52;;;;;;;16.02;2.72;;;9.00;99.90;;;;;;5056454;28;20135;-18
2023/12/11 10:42:18;;;;;;;19.60;3.83;;;8.20;99.90;;;;;;5057292;28;20067;-18
2023/12/11 10:44:44;;;;;;;28.88;3.72;;;8.70;99.90;;;;;;5055512;28;20475;-18
2023/12/11 10:47:10;;;;;;;32.15;4.03;;;8.40;99.90;;;;;;5056326;28;20095;-18
2023/12/11 10:49:37;;;;;;;16.13;2.88;;;9.20;99.90;;;;;;5056426;28;20045;-18
2023/12/11 10:52:03;;;;;;;20.00;3.08;;;9.30;99.90;;;;;;5056314;28;20091;-18
2023/12/11 10:54:29;;;;;;;29.52;3.83;;;9.30;99.90;;;;;;5056206;28;20099;-18
2023/12/11 10:56:59;;;;;;;19.05;3.33;;;8.50;99.90;;;;;;5054958;28;20064;-18
2023/12/11 10:59:30;;;;;;;16.77;3.53;;;9.00;99.90;;;;;;5038352;28;20494;-18
2023/12/11 11:01:58;;;;;;;15.95;3.08;;;9.20;99.90;;;;;;5055566;28;20045;-18
2023/12/11 11:04:30;;;;;;;16.40;2.80;;;9.10;99.90;;;;;;5038315;28;20078;-18
2023/12/11 11:07:33;;;;;;;15.45;3.00;;;9.20;99.90;;;;;;5055653;28;20446;-18
2023/12/11 11:10:03;;;;;;;14.32;2.33;;;8.40;99.90;;;;;;5054648;28;20525;-18
2023/12/11 11:12:35;;;;;;;16.52;2.67;;;8.70;99.90;;;;;;5055155;28;20491;-18
2023/12/11 11:15:01;;;;;;;13.30;2.53;;;8.30;99.90;;;;;;5055526;28;20053;-18
2023/12/11 11:18:00;;;;;;;14.23;2.10;;;8.30;99.90;;;;;;5055838;28;20099;-18
2023/12/11 11:20:38;;;;;;;12.25;2.80;;;8.30;99.90;;;;;;5055670;28;20104;-18
2023/12/11 11:23:18;;;;;;;11.38;2.08;;;8.30;99.90;;;;;;5038579;28;20541;-18
2023/12/11 11:25:52;;;;;;;12.48;1.83;;;8.50;99.90;;;;;;5055611;28;20041;-18
2023/12/11 11:28:37;;;;;;;;;;;8.50;99.90;;;;;;5056626;28;20049;-18
2023/12/11 11:31:03;;;;;;;19.15;3.05;;;8.20;99.90;;;;;;5054867;28;19927;-18
2023/12/11 11:33:47;;;;;;;15.82;1.90;;;8.00;99.90;;;;;;5055464;28;20053;-18
2023/12/11 11:36:17;;;;;;;14.20;1.88;;;8.00;99.90;;;;;;5055440;28;20043;-18
2023/12/11 11:39:04;;;;;;;9.05;1.58;;;7.90;99.90;;;;;;5054367;28;20040;-18
2023/12/11 11:41:32;;;;;;;12.18;1.77;;;8.00;99.90;;;;;;5054486;28;20526;-18
2023/12/11 11:44:09;;;;;;;9.20;1.25;;;8.10;99.90;;;;;;5055355;28;20128;-18
2023/12/11 11:46:57;;;;;;;14.32;2.10;;;8.20;99.90;;;;;;5055250;28;20044;-18
2023/12/11 11:49:24;;;;;;;9.50;1.30;;;8.30;99.90;;;;;;5055181;28;20045;-18
2023/12/11 11:51:49;;;;;;;5.85;0.63;;;8.30;99.90;;;;;;5055391;28;20083;-18
2023/12/11 11:54:15;;;;;;;8.65;1.52;;;8.30;99.90;;;;;;5053950;28;20491;-18
2023/12/11 11:56:47;;;;;;;9.50;1.73;;;8.40;99.90;;;;;;5055801;28;20133;-18
2023/12/11 11:59:13;;;;;;;8.52;1.25;;;8.30;99.90;;;;;;5054964;28;20049;-18
2023/12/11 12:01:53;;;;;;;6.63;1.08;;;8.30;99.90;;;;;;5054995;28;20164;-18
2023/12/11 12:04:35;;;;;;;13.00;3.08;;;8.20;99.90;;;;;;5055240;28;20124;-18
2023/12/11 12:07:03;;;;;;;11.05;1.50;;;8.40;99.90;;;;;;5055778;28;20048;-18
2023/12/11 12:09:33;;;;;;;7.65;1.83;;;8.40;99.90;;;;;;5054797;28;20059;-18
2023/12/11 12:12:00;;;;;;;12.23;2.45;;;8.50;99.90;;;;;;5054668;28;20053;-18
2023/12/11 12:14:26;;;;;;;7.13;2.03;;;8.40;99.90;;;;;;5053387;28;20064;-18
2023/12/11 12:16:52;;;;;;;18.25;3.00;;;8.50;99.90;;;;;;5055207;28;20391;-18
2023/12/11 12:19:32;;;;;;;21.80;2.85;;;8.40;99.90;;;;;;5053650;28;20514;-18
2023/12/11 12:21:58;;;;;;;14.85;2.72;;;8.30;99.90;;;;;;5054634;28;20045;-18
2023/12/11 12:24:25;;;;;;;5.78;1.60;;;8.30;99.90;;;;;;5053521;28;20080;-18
2023/12/11 12:26:54;;;;;;;20.05;2.42;;;8.20;99.90;;;;;;5054464;28;20045;-18
2023/12/11 12:29:20;;;;;;;14.63;2.72;;;8.20;99.90;;;;;;5054416;28;20463;-18
2023/12/11 12:31:47;;;;;;;16.63;2.45;;;8.20;99.90;;;;;;5054454;28;20136;-18
2023/12/11 12:34:14;;;;;;;12.40;2.92;;;8.10;99.90;;;;;;5054349;28;20049;-18
2023/12/11 12:36:42;;;;;;;12.77;2.03;;;8.10;99.90;;;;;;5052981;28;20451;-18
2023/12/11 12:39:08;;;;;;;11.75;1.77;;;8.10;99.90;;;;;;5052772;28;20487;-18
2023/12/11 12:41:34;;;;;;;20.77;4.00;;;8.10;99.90;;;;;;5054580;28;20057;-18
2023/12/11 12:44:01;;;;;;;11.90;2.53;;;8.10;99.90;;;;;;5053767;28;20482;-18
2023/12/11 12:46:36;;;;;;;12.00;1.50;;;8.00;99.90;;;;;;5054153;28;20483;-18
2023/12/11 12:49:10;;;;;;;15.25;1.55;;;8.00;99.90;;;;;;5054764;28;20107;-18